Time;durP1;ratioP1;P1;durP2;ratioP2;P2;SDS_P1;SDS_P2;PMS_P1;PMS_P2;Temp;Humidity;BMP_temperature;BMP_pressure;BME280_temperature;BME280_humidity;BME280_pressure;Samples;Min_cycle;Max_cycle;Signal;HPM_P1;HPM_P2
2021/06/17 00:00:17;;;;;;;17.00;15.90;;;23.70;92.90;;;;;;5111901;28;20406;-78
2021/06/17 00:02:43;;;;;;;17.00;15.80;;;23.70;93.20;;;;;;5112204;28;20545;-78
2021/06/17 00:05:12;;;;;;;17.10;15.70;;;23.70;93.00;;;;;;5113434;28;20510;-78
2021/06/17 00:07:38;;;;;;;17.30;16.10;;;23.70;93.00;;;;;;5110841;28;20425;-78
2021/06/17 00:10:10;;;;;;;17.53;16.20;;;23.60;93.20;;;;;;5111846;28;20421;-78
2021/06/17 00:12:36;;;;;;;18.27;16.87;;;23.60;93.50;;;;;;5112430;28;20179;-78
2021/06/17 00:15:05;;;;;;;17.47;16.13;;;23.60;93.30;;;;;;5112015;28;20413;-78
2021/06/17 00:17:31;;;;;;;19.43;17.70;;;23.60;93.80;;;;;;5102392;28;20919;-78
2021/06/17 00:19:56;;;;;;;194.87;165.70;;;23.50;93.40;;;;;;5091410;28;20422;-78
2021/06/17 00:22:22;;;;;;;60.97;54.47;;;23.60;93.40;;;;;;5090694;28;20644;-79
2021/06/17 00:24:48;;;;;;;57.37;51.50;;;23.50;93.50;;;;;;5091898;28;20231;-78
2021/06/17 00:27:14;;;;;;;24.93;22.63;;;23.50;93.20;;;;;;5092073;28;20189;-78
2021/06/17 00:29:39;;;;;;;17.00;15.80;;;23.60;93.70;;;;;;5089996;28;20203;-78
2021/06/17 00:32:05;;;;;;;17.10;15.90;;;23.50;93.20;;;;;;5100470;28;20183;-78
2021/06/17 00:34:31;;;;;;;15.87;14.67;;;23.50;93.20;;;;;;5112071;28;20179;-78
2021/06/17 00:36:57;;;;;;;16.30;15.10;;;23.60;93.10;;;;;;5111819;28;20398;-77
2021/06/17 00:39:22;;;;;;;16.37;15.07;;;23.50;93.10;;;;;;5112089;28;20264;-77
2021/06/17 00:41:48;;;;;;;16.30;15.07;;;23.50;93.30;;;;;;5112029;28;20176;-76
2021/06/17 00:44:14;;;;;;;16.30;15.10;;;23.50;93.70;;;;;;5112620;28;20214;-77
2021/06/17 00:46:40;;;;;;;17.00;15.63;;;23.50;93.40;;;;;;5107887;28;20223;-76
2021/06/17 00:49:06;;;;;;;17.43;16.03;;;23.50;93.50;;;;;;5092298;28;20454;-75
2021/06/17 00:51:32;;;;;;;16.50;15.30;;;23.40;93.50;;;;;;5091548;28;20628;-75
2021/06/17 00:53:58;;;;;;;16.77;15.47;;;23.40;93.70;;;;;;5092337;28;20438;-75
2021/06/17 00:56:24;;;;;;;16.50;15.30;;;23.40;93.90;;;;;;5091896;28;20422;-77
2021/06/17 00:58:51;;;;;;;16.10;14.97;;;23.30;93.90;;;;;;5091955;28;20179;-76
2021/06/17 01:01:17;;;;;;;15.00;13.80;;;23.30;94.00;;;;;;5092173;28;20456;-75
2021/06/17 01:03:43;;;;;;;15.07;13.80;;;23.30;93.70;;;;;;5108694;28;20410;-75
2021/06/17 01:06:10;;;;;;;15.10;14.00;;;23.30;93.90;;;;;;5111281;28;20541;-75
2021/06/17 01:09:01;;;;;;;15.80;14.50;;;23.20;93.70;;;;;;5111719;28;20509;-76
2021/06/17 01:11:46;;;;;;;15.60;14.43;;;23.20;93.90;;;;;;5111700;28;20476;-77
2021/06/17 01:14:20;;;;;;;15.67;14.37;;;23.20;94.20;;;;;;5112508;28;20400;-76
2021/06/17 01:16:51;;;;;;;16.77;15.37;;;23.20;94.20;;;;;;5109231;28;20589;-76
2021/06/17 01:19:34;;;;;;;16.63;15.40;;;23.10;94.30;;;;;;5092243;28;20395;-76
2021/06/17 01:22:15;;;;;;;16.73;15.43;;;23.10;94.30;;;;;;5092000;28;20414;-76
2021/06/17 01:25:32;;;;;;;16.57;15.27;;;23.10;94.50;;;;;;5090533;28;20478;-76
2021/06/17 01:28:18;;;;;;;17.67;16.37;;;23.10;94.60;;;;;;5068409;28;20493;-76
2021/06/17 01:30:56;;;;;;;16.30;14.90;;;23.00;94.60;;;;;;5091010;28;20509;-76
2021/06/17 01:33:24;;;;;;;16.60;15.20;;;22.90;94.70;;;;;;5107616;28;20413;-76
2021/06/17 01:35:50;;;;;;;16.47;15.20;;;22.90;94.70;;;;;;5111682;28;20401;-75
2021/06/17 01:38:23;;;;;;;16.07;14.67;;;22.90;94.90;;;;;;5111946;28;20433;-76
2021/06/17 01:40:50;;;;;;;16.77;15.27;;;22.90;94.90;;;;;;5113807;28;20464;-76
2021/06/17 01:43:17;;;;;;;16.47;15.07;;;22.90;94.90;;;;;;5115718;28;20903;-76
2021/06/17 01:45:45;;;;;;;15.90;14.70;;;22.90;95.10;;;;;;5113576;28;20441;-76
2021/06/17 01:48:11;;;;;;;16.73;15.13;;;22.80;95.00;;;;;;5103822;28;20417;-76
2021/06/17 01:50:37;;;;;;;17.70;16.30;;;22.80;95.00;;;;;;5094702;28;20394;-76
2021/06/17 01:53:04;;;;;;;17.63;16.30;;;22.80;95.00;;;;;;5095429;28;20499;-76
2021/06/17 01:55:32;;;;;;;17.40;16.00;;;22.80;95.10;;;;;;5094342;28;20414;-77
2021/06/17 01:58:05;;;;;;;15.57;14.23;;;22.70;95.10;;;;;;5095321;28;20418;-76
2021/06/17 02:00:31;;;;;;;17.10;15.83;;;22.70;95.40;;;;;;5093386;28;20432;-76
2021/06/17 02:03:02;;;;;;;17.47;16.17;;;22.70;95.10;;;;;;5096598;28;20413;-76
2021/06/17 02:05:29;;;;;;;17.73;16.27;;;22.70;95.20;;;;;;5094745;28;20792;-78
2021/06/17 02:07:56;;;;;;;17.13;15.83;;;22.70;95.10;;;;;;5094753;28;20464;-76
2021/06/17 02:10:22;;;;;;;18.00;16.70;;;22.70;95.10;;;;;;5095077;28;20399;-76
2021/06/17 02:12:48;;;;;;;18.20;16.90;;;22.70;95.30;;;;;;5094254;28;20583;-76
2021/06/17 02:15:15;;;;;;;18.80;17.20;;;22.70;95.30;;;;;;5096057;28;20500;-75
2021/06/17 02:17:44;;;;;;;17.33;15.83;;;22.70;95.30;;;;;;5102316;28;20413;-76
2021/06/17 02:20:12;;;;;;;16.10;14.80;;;22.70;95.40;;;;;;5115363;28;20504;-76
2021/06/17 02:22:42;;;;;;;15.40;14.30;;;22.60;95.40;;;;;;5114188;28;20420;-76
2021/06/17 02:25:09;;;;;;;15.60;14.33;;;22.60;95.40;;;;;;5115317;28;20932;-76
2021/06/17 02:27:37;;;;;;;15.73;14.50;;;22.60;95.30;;;;;;5114375;28;20428;-76
2021/06/17 02:30:08;;;;;;;15.70;14.30;;;22.60;95.40;;;;;;5115156;28;20398;-76
2021/06/17 02:32:39;;;;;;;14.90;13.70;;;22.60;95.40;;;;;;5107579;28;20439;-76
2021/06/17 02:35:07;;;;;;;14.60;13.50;;;22.60;95.40;;;;;;5094458;28;20398;-76
2021/06/17 02:37:35;;;;;;;13.80;12.70;;;22.50;95.30;;;;;;5093799;28;20406;-77
2021/06/17 02:40:02;;;;;;;14.27;13.27;;;22.50;95.30;;;;;;5094560;28;20414;-76
2021/06/17 02:42:29;;;;;;;13.90;12.90;;;22.50;95.30;;;;;;5094372;28;20410;-77
2021/06/17 02:44:56;;;;;;;14.20;13.10;;;22.50;95.30;;;;;;5093995;28;20500;-76
2021/06/17 02:47:22;;;;;;;15.07;13.97;;;22.50;95.40;;;;;;5094201;28;20445;-76
2021/06/17 02:49:48;;;;;;;14.73;13.53;;;22.50;95.20;;;;;;5093547;28;20483;-76
2021/06/17 02:52:14;;;;;;;14.27;13.10;;;22.40;95.40;;;;;;5093739;28;20399;-76
2021/06/17 02:54:40;;;;;;;15.50;14.40;;;22.40;95.40;;;;;;5093637;28;20172;-76
2021/06/17 02:57:23;;;;;;;15.60;14.50;;;22.40;95.50;;;;;;5094246;28;20215;-76
2021/06/17 02:59:51;;;;;;;14.97;13.80;;;22.40;95.40;;;;;;5093053;28;20459;-76
2021/06/17 03:02:34;;;;;;;14.77;13.60;;;22.40;95.50;;;;;;5098241;28;20444;-76
2021/06/17 03:05:11;;;;;;;15.20;13.93;;;22.30;95.40;;;;;;5112581;28;20472;-76
2021/06/17 03:08:12;;;;;;;15.33;14.23;;;22.30;95.50;;;;;;5113659;28;20390;-76
2021/06/17 03:10:39;;;;;;;15.87;14.57;;;22.30;95.80;;;;;;5110382;28;20422;-76
2021/06/17 03:13:06;;;;;;;15.60;14.30;;;22.30;95.80;;;;;;5114502;28;20449;-76
2021/06/17 03:15:38;;;;;;;15.50;14.20;;;22.30;95.80;;;;;;5113842;28;20401;-77
2021/06/17 03:18:06;;;;;;;16.37;14.90;;;22.30;95.90;;;;;;5103963;28;20531;-76
2021/06/17 03:20:36;;;;;;;15.33;14.13;;;22.30;95.90;;;;;;5093138;28;20489;-78
2021/06/17 03:23:05;;;;;;;16.30;15.10;;;22.30;95.90;;;;;;5093412;28;20552;-76
2021/06/17 03:25:33;;;;;;;15.90;14.60;;;22.30;96.00;;;;;;5093433;28;20446;-77
2021/06/17 03:28:00;;;;;;;16.27;14.50;;;22.30;96.00;;;;;;5093142;28;20436;-76
2021/06/17 03:30:29;;;;;;;14.97;13.70;;;22.20;95.90;;;;;;5093517;28;20403;-76
2021/06/17 03:32:59;;;;;;;15.10;13.67;;;22.20;95.90;;;;;;5098698;28;20784;-76
2021/06/17 03:35:28;;;;;;;15.50;14.03;;;22.20;95.90;;;;;;5112746;28;20892;-75
2021/06/17 03:37:56;;;;;;;15.33;13.93;;;22.20;96.00;;;;;;5112975;28;20405;-75
2021/06/17 03:40:23;;;;;;;14.93;13.73;;;22.20;95.90;;;;;;5113478;28;20408;-76
2021/06/17 03:42:53;;;;;;;15.00;13.67;;;22.20;96.00;;;;;;5112852;28;20742;-76
2021/06/17 03:45:21;;;;;;;15.50;14.20;;;22.20;95.90;;;;;;5113548;28;20453;-76
2021/06/17 03:47:48;;;;;;;14.40;13.20;;;22.20;96.10;;;;;;5105610;28;20429;-76
2021/06/17 03:50:17;;;;;;;14.20;13.00;;;22.20;96.00;;;;;;5091782;28;20826;-76
2021/06/17 03:52:47;;;;;;;14.77;13.67;;;22.20;96.20;;;;;;5092288;28;20453;-76
2021/06/17 03:55:17;;;;;;;15.40;14.00;;;22.30;96.20;;;;;;5093052;28;20776;-75
2021/06/17 03:57:46;;;;;;;24.50;22.30;;;22.20;96.50;;;;;;5092235;28;20398;-76
2021/06/17 04:00:13;;;;;;;16.50;15.00;;;22.30;96.20;;;;;;5093009;28;20409;-76
2021/06/17 04:02:40;;;;;;;15.10;14.10;;;22.30;96.40;;;;;;5092278;28;20414;-77
2021/06/17 04:05:08;;;;;;;16.37;15.10;;;22.20;96.30;;;;;;5092860;28;20875;-76
2021/06/17 04:07:36;;;;;;;15.57;14.40;;;22.20;96.50;;;;;;5092817;28;20468;-78
2021/06/17 04:10:05;;;;;;;16.67;15.37;;;22.30;96.90;;;;;;5091483;28;20513;-77
2021/06/17 04:12:31;;;;;;;17.90;16.40;;;22.30;96.90;;;;;;5092973;28;20426;-76
2021/06/17 04:15:01;;;;;;;15.10;13.90;;;22.30;97.10;;;;;;5091987;28;20429;-76
2021/06/17 04:17:43;;;;;;;16.27;14.97;;;22.30;97.20;;;;;;5093795;28;20467;-76
2021/06/17 04:20:12;;;;;;;16.50;15.20;;;22.30;97.30;;;;;;5092790;28;20896;-76
2021/06/17 04:22:42;;;;;;;16.47;15.17;;;22.30;97.50;;;;;;5091705;28;20418;-77
2021/06/17 04:25:10;;;;;;;18.70;17.10;;;22.30;97.40;;;;;;5092603;28;20434;-76
2021/06/17 04:27:37;;;;;;;14.70;13.60;;;22.30;97.70;;;;;;5092259;28;20458;-77
2021/06/17 04:30:04;;;;;;;15.03;13.73;;;22.30;97.70;;;;;;5091167;28;20491;-75
2021/06/17 04:32:30;;;;;;;16.87;15.67;;;22.30;97.50;;;;;;5093680;28;20472;-76
2021/06/17 04:34:57;;;;;;;14.80;13.60;;;22.30;97.70;;;;;;5091640;28;20403;-76
2021/06/17 04:37:27;;;;;;;13.50;12.40;;;22.40;97.70;;;;;;5092511;28;20459;-76
2021/06/17 04:39:58;;;;;;;15.17;14.07;;;22.40;97.70;;;;;;5091676;28;20398;-76
2021/06/17 04:42:25;;;;;;;13.23;12.07;;;22.50;97.60;;;;;;5092429;28;20410;-77
2021/06/17 04:44:52;;;;;;;13.13;11.97;;;22.50;97.80;;;;;;5089995;28;20924;-76
2021/06/17 04:47:18;;;;;;;14.00;12.70;;;22.50;97.80;;;;;;5092840;28;20808;-89
2021/06/17 04:49:45;;;;;;;12.97;11.93;;;22.60;97.50;;;;;;5091248;28;20429;-90
2021/06/17 04:52:30;;;;;;;16.20;15.00;;;22.60;96.50;;;;;;5092429;28;20413;-90
2021/06/17 04:54:56;;;;;;;14.00;12.70;;;22.70;96.20;;;;;;5098026;28;20554;-88
2021/06/17 04:57:22;;;;;;;13.50;12.50;;;22.80;96.30;;;;;;5113395;28;20413;-89
2021/06/17 04:59:47;;;;;;;12.73;11.73;;;22.80;96.00;;;;;;5116057;28;20405;-88
2021/06/17 05:02:13;;;;;;;12.70;11.77;;;22.90;95.90;;;;;;5103570;28;20176;-89
2021/06/17 05:04:39;;;;;;;13.27;12.37;;;23.00;95.70;;;;;;5090222;28;20202;-88
2021/06/17 05:12:16;;;;;;;12.73;11.73;;;23.10;95.40;;;;;;5112193;28;20760;-90
2021/06/17 05:14:42;;;;;;;13.70;12.60;;;23.20;95.80;;;;;;5114192;28;20512;-89
2021/06/17 05:17:08;;;;;;;14.30;13.40;;;23.20;95.20;;;;;;5117161;28;20440;-91
2021/06/17 05:19:33;;;;;;;16.10;15.00;;;23.30;95.20;;;;;;5117077;27;20449;-90
2021/06/17 05:21:59;;;;;;;12.93;11.83;;;23.30;95.00;;;;;;5091805;28;20173;-91
2021/06/17 05:24:26;;;;;;;14.53;13.63;;;23.40;95.20;;;;;;5096513;28;20228;-91
2021/06/17 05:26:52;;;;;;;13.03;11.93;;;23.50;95.10;;;;;;5095402;28;20472;-91
2021/06/17 05:29:18;;;;;;;15.27;14.07;;;23.60;95.60;;;;;;5095125;28;20807;-91
2021/06/17 05:31:43;;;;;;;14.80;13.60;;;23.60;95.10;;;;;;5106226;28;20642;-89
2021/06/17 05:34:09;;;;;;;12.00;11.10;;;23.70;94.10;;;;;;5078049;28;20425;-90
2021/06/17 05:36:35;;;;;;;11.67;10.20;;;23.80;94.30;;;;;;5096035;28;20204;-90
2021/06/17 05:39:01;;;;;;;11.87;10.73;;;23.80;94.30;;;;;;5093750;28;20740;-90
2021/06/17 05:41:26;;;;;;;13.63;12.43;;;23.80;93.30;;;;;;5111382;28;20646;-90
2021/06/17 05:43:52;;;;;;;13.30;12.30;;;23.90;93.90;;;;;;5113911;28;20179;-89
2021/06/17 05:46:18;;;;;;;15.00;13.70;;;23.90;93.60;;;;;;5116095;28;20453;-89
2021/06/17 05:48:44;;;;;;;12.10;11.20;;;24.00;93.60;;;;;;5115067;28;20414;-89
2021/06/17 05:51:10;;;;;;;13.70;12.70;;;24.10;94.10;;;;;;5115734;28;20408;-88
2021/06/17 05:53:36;;;;;;;13.03;11.97;;;24.20;93.40;;;;;;5115547;28;20184;-88
2021/06/17 05:56:02;;;;;;;14.97;13.87;;;24.30;93.90;;;;;;5114968;28;20202;-88
2021/06/17 05:58:28;;;;;;;11.20;10.40;;;24.30;93.40;;;;;;5115896;28;20500;-89
2021/06/17 06:00:54;;;;;;;11.50;10.70;;;24.30;92.90;;;;;;5109202;28;20869;-88
2021/06/17 06:03:20;;;;;;;11.50;10.60;;;24.40;93.20;;;;;;5106990;28;20426;-88
2021/06/17 06:05:45;;;;;;;11.20;10.20;;;24.50;92.90;;;;;;5114613;28;20246;-88
2021/06/17 06:08:11;;;;;;;10.80;9.90;;;24.50;92.70;;;;;;5094598;28;20184;-88
2021/06/17 06:10:38;;;;;;;10.73;9.83;;;24.60;91.80;;;;;;5093746;28;20180;-88
2021/06/17 06:13:04;;;;;;;10.83;9.90;;;24.60;91.60;;;;;;5093135;28;21015;-88
2021/06/17 06:15:33;;;;;;;12.27;11.20;;;24.70;91.30;;;;;;5095056;28;20430;-89
2021/06/17 06:18:13;;;;;;;11.27;10.10;;;24.70;90.70;;;;;;5095362;28;20421;-88
2021/06/17 06:20:42;;;;;;;12.57;11.27;;;24.80;90.30;;;;;;5093840;28;20398;-88
2021/06/17 06:23:08;;;;;;;10.07;9.37;;;24.90;88.50;;;;;;5094373;28;20462;-89
2021/06/17 06:25:35;;;;;;;9.53;8.90;;;24.90;89.40;;;;;;5093859;28;20547;-87
2021/06/17 06:28:01;;;;;;;9.20;8.60;;;25.00;88.70;;;;;;5092973;28;20460;-87
2021/06/17 06:30:28;;;;;;;9.97;9.27;;;25.10;89.10;;;;;;5093372;28;20407;-87
2021/06/17 06:32:54;;;;;;;9.10;8.40;;;25.20;89.20;;;;;;5096456;28;20437;-89
2021/06/17 06:35:20;;;;;;;8.90;8.20;;;25.20;87.60;;;;;;5113811;28;20916;-87
2021/06/17 06:37:50;;;;;;;11.30;10.50;;;25.30;87.40;;;;;;5112917;28;20418;-88
2021/06/17 06:40:17;;;;;;;9.23;8.53;;;25.40;88.40;;;;;;5095351;28;20422;-89
2021/06/17 06:42:44;;;;;;;9.33;8.47;;;25.60;88.20;;;;;;5094873;28;20796;-82
2021/06/17 06:45:11;;;;;;;9.80;8.93;;;25.60;86.50;;;;;;5108727;28;20465;-83
2021/06/17 06:47:37;;;;;;;10.80;10.20;;;25.70;87.00;;;;;;5098960;28;20521;-82
2021/06/17 06:50:04;;;;;;;9.63;8.87;;;25.80;86.30;;;;;;5104640;28;20439;-82
2021/06/17 06:52:30;;;;;;;9.90;9.20;;;25.90;86.40;;;;;;5098640;28;20422;-83
2021/06/17 06:54:58;;;;;;;9.40;8.80;;;26.00;86.00;;;;;;5102634;28;20855;-83
2021/06/17 06:57:25;;;;;;;10.73;9.80;;;26.10;85.70;;;;;;5099914;28;20177;-83
2021/06/17 06:59:51;;;;;;;10.40;9.60;;;26.20;84.60;;;;;;5108085;28;20425;-83
2021/06/17 07:02:17;;;;;;;10.37;9.57;;;26.20;84.60;;;;;;5112577;28;20920;-83
2021/06/17 07:04:43;;;;;;;9.43;8.83;;;26.30;83.30;;;;;;5103130;28;20246;-83
2021/06/17 07:07:09;;;;;;;9.70;9.07;;;26.50;84.50;;;;;;5109538;28;20899;-83
2021/06/17 07:09:34;;;;;;;11.30;10.50;;;26.60;83.10;;;;;;5114142;28;20175;-83
2021/06/17 07:12:02;;;;;;;9.90;8.90;;;26.70;83.20;;;;;;5103167;28;20425;-82
2021/06/17 07:14:28;;;;;;;9.87;9.17;;;26.80;83.20;;;;;;5093342;28;20179;-83
2021/06/17 07:16:54;;;;;;;8.77;8.20;;;26.90;82.00;;;;;;5092751;28;20437;-83
2021/06/17 07:19:20;;;;;;;8.80;8.20;;;27.00;79.90;;;;;;5093771;28;20406;-83
2021/06/17 07:21:46;;;;;;;9.40;8.80;;;27.10;80.50;;;;;;5102621;28;20421;-83
2021/06/17 07:24:12;;;;;;;9.90;8.93;;;27.20;81.10;;;;;;5113138;28;20449;-83
2021/06/17 07:26:38;;;;;;;10.30;9.30;;;27.40;82.80;;;;;;5113847;28;20671;-84
2021/06/17 07:29:03;;;;;;;10.17;9.47;;;27.50;79.10;;;;;;5102731;28;20176;-82
2021/06/17 07:31:29;;;;;;;9.43;8.63;;;27.60;78.10;;;;;;5105280;28;20538;-83
2021/06/17 07:33:55;;;;;;;8.87;8.27;;;27.60;77.80;;;;;;5092857;28;20180;-82
2021/06/17 07:36:21;;;;;;;9.20;8.60;;;27.70;76.70;;;;;;5099916;28;20232;-83
2021/06/17 07:38:47;;;;;;;10.03;9.10;;;27.70;76.00;;;;;;5111572;28;20414;-80
2021/06/17 07:41:13;;;;;;;8.80;8.20;;;27.80;76.00;;;;;;5106272;28;20172;-84
2021/06/17 07:43:39;;;;;;;8.63;8.03;;;28.00;79.40;;;;;;5097043;28;20699;-83
2021/06/17 07:46:05;;;;;;;10.50;9.50;;;28.10;77.00;;;;;;5092091;28;20458;-82
2021/06/17 07:48:32;;;;;;;9.40;8.53;;;28.20;76.50;;;;;;5095678;28;20777;-83
2021/06/17 07:50:57;;;;;;;9.23;8.43;;;28.30;76.60;;;;;;5110409;28;20433;-83
2021/06/17 07:53:24;;;;;;;8.93;8.00;;;28.40;75.20;;;;;;5113557;28;20916;-83
2021/06/17 07:55:49;;;;;;;8.53;7.97;;;28.50;73.00;;;;;;5112952;28;20522;-83
2021/06/17 07:58:15;;;;;;;7.83;7.33;;;28.50;71.20;;;;;;5111309;28;20409;-83
2021/06/17 08:00:41;;;;;;;9.80;8.80;;;28.70;72.50;;;;;;5098789;28;20582;-83
2021/06/17 08:03:10;;;;;;;9.30;8.50;;;28.80;70.30;;;;;;5092088;28;20991;-84
2021/06/17 08:05:36;;;;;;;7.83;7.43;;;28.90;74.00;;;;;;5091594;28;20467;-83
2021/06/17 08:08:03;;;;;;;9.40;8.70;;;28.90;70.30;;;;;;5095403;28;20427;-83
2021/06/17 08:10:29;;;;;;;8.53;8.00;;;29.00;70.90;;;;;;5092766;28;20418;-84
2021/06/17 08:12:54;;;;;;;11.57;10.57;;;29.20;69.10;;;;;;5095398;28;20418;-84
2021/06/17 08:15:22;;;;;;;9.80;9.10;;;29.30;72.00;;;;;;5101708;28;20176;-84
2021/06/17 08:17:48;;;;;;;9.50;8.57;;;29.40;71.70;;;;;;5092327;28;20176;-83
2021/06/17 08:20:14;;;;;;;8.70;8.10;;;29.60;72.80;;;;;;5102449;28;20858;-83
2021/06/17 08:22:41;;;;;;;12.53;11.73;;;29.60;71.90;;;;;;5097730;28;20426;-84
2021/06/17 08:25:09;;;;;;;12.37;11.40;;;29.70;71.10;;;;;;5109368;28;20168;-83
2021/06/17 08:27:35;;;;;;;10.37;9.77;;;29.90;72.40;;;;;;5108971;28;20902;-83
2021/06/17 08:30:04;;;;;;;8.70;8.00;;;30.00;66.10;;;;;;5091807;28;20413;-84
2021/06/17 08:32:30;;;;;;;8.27;7.77;;;30.00;68.10;;;;;;5092563;28;20956;-83
2021/06/17 08:34:56;;;;;;;10.63;9.93;;;30.10;66.90;;;;;;5091725;28;20426;-83
2021/06/17 08:37:21;;;;;;;8.90;8.23;;;30.20;67.00;;;;;;5096427;28;20178;-84
2021/06/17 08:39:47;;;;;;;9.40;8.90;;;30.30;67.60;;;;;;5097367;28;20212;-82
2021/06/17 08:42:13;;;;;;;9.80;9.20;;;30.40;64.40;;;;;;5100882;28;20181;-81
2021/06/17 08:44:39;;;;;;;8.27;7.77;;;30.40;63.90;;;;;;5094133;28;20204;-82
2021/06/17 08:47:05;;;;;;;7.70;7.30;;;30.50;64.60;;;;;;5091523;28;20208;-81
2021/06/17 08:49:30;;;;;;;9.03;8.53;;;30.50;60.80;;;;;;5091320;28;20181;-82
2021/06/17 08:51:59;;;;;;;8.50;8.00;;;30.60;62.20;;;;;;5092825;28;20247;-82
2021/06/17 08:54:26;;;;;;;9.73;8.90;;;30.70;61.00;;;;;;5092860;28;20580;-81
2021/06/17 08:56:54;;;;;;;8.37;7.77;;;30.70;61.90;;;;;;5100973;28;20500;-81
2021/06/17 08:59:38;;;;;;;9.57;8.97;;;30.90;60.30;;;;;;5107480;28;20429;-83
2021/06/17 09:02:05;;;;;;;8.40;7.90;;;31.00;61.90;;;;;;5097802;28;20414;-82
2021/06/17 09:04:31;;;;;;;9.07;8.67;;;31.10;63.10;;;;;;5092798;28;20453;-83
2021/06/17 09:07:13;;;;;;;8.57;7.97;;;31.20;59.50;;;;;;5091646;28;20503;-82
2021/06/17 09:09:44;;;;;;;9.30;8.60;;;31.20;60.40;;;;;;5092559;28;20413;-82
2021/06/17 09:12:17;;;;;;;9.73;8.77;;;31.40;61.40;;;;;;5091658;28;20406;-82
2021/06/17 09:14:55;;;;;;;9.70;9.00;;;31.40;58.70;;;;;;5092247;28;20673;-82
2021/06/17 09:17:21;;;;;;;8.37;7.87;;;31.60;61.10;;;;;;5092455;28;20405;-82
2021/06/17 09:19:49;;;;;;;8.83;8.23;;;31.70;59.30;;;;;;5092092;28;20406;-82
2021/06/17 09:22:20;;;;;;;9.93;9.33;;;31.70;59.80;;;;;;5090506;28;20180;-82
2021/06/17 09:24:49;;;;;;;8.53;8.00;;;31.90;58.30;;;;;;5092384;28;20812;-82
2021/06/17 09:27:35;;;;;;;9.50;8.90;;;32.00;59.70;;;;;;5091617;28;20510;-82
2021/06/17 09:30:10;;;;;;;8.97;8.27;;;32.00;59.00;;;;;;5091877;28;20419;-82
2021/06/17 09:33:00;;;;;;;8.33;7.70;;;32.00;56.90;;;;;;5091822;28;20774;-82
2021/06/17 09:35:27;;;;;;;7.80;7.40;;;32.00;58.80;;;;;;5092132;28;20406;-82
2021/06/17 09:38:05;;;;;;;7.20;6.80;;;32.10;58.10;;;;;;5091526;28;20413;-80
2021/06/17 09:40:50;;;;;;;7.80;7.20;;;32.20;57.40;;;;;;5092345;28;20784;-82
2021/06/17 09:43:34;;;;;;;11.30;10.70;;;32.40;58.80;;;;;;5091605;28;20405;-82
2021/06/17 09:46:05;;;;;;;8.13;7.53;;;32.50;58.20;;;;;;5091586;28;20426;-81
2021/06/17 09:48:42;;;;;;;7.47;6.83;;;32.50;56.60;;;;;;5092258;28;20477;-82
2021/06/17 09:51:26;;;;;;;6.70;6.30;;;32.50;55.70;;;;;;5091625;28;20481;-81
2021/06/17 09:54:04;;;;;;;9.10;8.70;;;32.60;55.70;;;;;;5092304;28;20472;-82
2021/06/17 09:56:33;;;;;;;7.57;7.17;;;32.60;54.30;;;;;;5092178;28;20475;-81
2021/06/17 09:58:59;;;;;;;7.93;7.53;;;32.60;54.50;;;;;;5091432;28;20412;-81
2021/06/17 10:01:34;;;;;;;6.80;6.40;;;32.60;53.10;;;;;;5093491;28;20957;-81
2021/06/17 10:04:08;;;;;;;7.60;7.03;;;32.70;56.20;;;;;;5095007;28;20611;-82
2021/06/17 10:06:36;;;;;;;7.03;6.63;;;32.70;52.50;;;;;;5095249;28;20446;-82
2021/06/17 10:09:18;;;;;;;6.73;6.33;;;32.90;53.20;;;;;;5094448;28;20959;-82
2021/06/17 10:11:45;;;;;;;6.20;5.80;;;33.00;54.20;;;;;;5095096;28;20413;-82
2021/06/17 10:14:12;;;;;;;6.67;6.00;;;33.10;53.30;;;;;;5093985;28;20413;-82
2021/06/17 10:16:39;;;;;;;6.50;6.00;;;33.20;53.70;;;;;;5094024;28;20799;-82
2021/06/17 10:19:05;;;;;;;7.10;6.70;;;33.30;52.80;;;;;;5094636;28;20465;-82
2021/06/17 10:21:32;;;;;;;7.63;7.20;;;33.40;53.40;;;;;;5095236;28;20410;-82
2021/06/17 10:24:22;;;;;;;8.30;7.70;;;33.60;54.40;;;;;;5094423;28;20461;-82
2021/06/17 10:27:05;;;;;;;7.97;7.57;;;33.70;52.80;;;;;;5095227;28;20545;-82
2021/06/17 10:29:39;;;;;;;5.50;5.10;;;33.70;52.50;;;;;;5095167;28;20459;-83
2021/06/17 10:32:06;;;;;;;8.53;8.13;;;33.70;48.90;;;;;;5094566;28;20395;-82
2021/06/17 10:34:35;;;;;;;5.80;5.40;;;33.60;51.70;;;;;;5095103;28;20524;-82
2021/06/17 10:37:15;;;;;;;6.70;6.30;;;33.70;51.40;;;;;;5094253;28;20489;-82
2021/06/17 10:39:47;;;;;;;8.40;8.00;;;33.80;52.30;;;;;;5094910;28;20418;-82
2021/06/17 10:42:23;;;;;;;7.70;7.40;;;33.90;51.30;;;;;;5094193;28;20459;-84
2021/06/17 10:45:07;;;;;;;6.10;5.80;;;33.90;50.50;;;;;;5094928;28;20459;-83
2021/06/17 10:47:46;;;;;;;7.50;7.07;;;34.10;51.30;;;;;;5094890;28;20402;-80
2021/06/17 10:50:25;;;;;;;6.47;6.07;;;34.20;52.60;;;;;;5094182;28;20394;-82
2021/06/17 10:53:18;;;;;;;6.77;6.37;;;34.20;51.20;;;;;;5094806;28;20415;-82
2021/06/17 10:56:08;;;;;;;7.03;6.63;;;34.00;51.60;;;;;;5094685;28;20847;-83
2021/06/17 10:58:45;;;;;;;9.90;9.40;;;33.90;50.70;;;;;;5094779;28;20470;-82
2021/06/17 11:01:27;;;;;;;9.93;9.33;;;34.00;52.30;;;;;;5093917;28;20497;-82
2021/06/17 11:04:18;;;;;;;6.23;5.83;;;34.10;53.40;;;;;;5094506;28;20429;-83
2021/06/17 11:06:50;;;;;;;9.57;8.97;;;34.30;52.50;;;;;;5094399;28;20450;-82
2021/06/17 11:09:37;;;;;;;6.47;6.17;;;34.40;52.50;;;;;;5093925;28;20893;-83
2021/06/17 11:12:13;;;;;;;7.57;7.17;;;34.40;53.00;;;;;;5093083;28;20422;-80
2021/06/17 11:14:43;;;;;;;7.10;6.60;;;34.50;52.30;;;;;;5094074;28;20901;-83
2021/06/17 11:17:33;;;;;;;8.17;7.77;;;34.40;50.90;;;;;;5093317;28;20445;-82
2021/06/17 11:20:04;;;;;;;7.40;7.00;;;34.50;50.60;;;;;;5093913;28;20418;-81
2021/06/17 11:22:50;;;;;;;8.00;7.50;;;34.60;51.00;;;;;;5093768;28;20826;-82
2021/06/17 11:25:16;;;;;;;7.40;7.00;;;34.60;51.50;;;;;;5093452;28;20488;-82
2021/06/17 11:28:03;;;;;;;6.80;6.40;;;34.50;51.80;;;;;;5094058;28;20418;-83
2021/06/17 11:30:38;;;;;;;8.33;7.93;;;34.60;50.60;;;;;;5094189;28;20167;-83
2021/06/17 11:33:16;;;;;;;6.70;6.30;;;34.50;51.50;;;;;;5093381;28;20488;-83
2021/06/17 11:35:50;;;;;;;6.97;6.60;;;34.60;52.30;;;;;;5094024;28;20414;-83
2021/06/17 11:38:25;;;;;;;7.90;7.20;;;34.50;49.10;;;;;;5093308;28;20390;-82
2021/06/17 11:40:52;;;;;;;155.13;139.57;;;34.40;51.50;;;;;;5093845;28;20410;-83
2021/06/17 11:43:22;;;;;;;44.67;40.37;;;34.60;51.30;;;;;;5092914;28;20450;-83
2021/06/17 11:45:48;;;;;;;9.63;9.13;;;34.60;51.30;;;;;;5093608;28;20442;-82
2021/06/17 11:48:13;;;;;;;7.90;7.50;;;34.60;51.90;;;;;;5093034;28;20480;-82
2021/06/17 11:50:44;;;;;;;9.10;8.70;;;34.70;51.20;;;;;;5093603;28;20620;-83
2021/06/17 11:53:16;;;;;;;7.80;7.40;;;34.60;48.30;;;;;;5093075;28;20172;-82
2021/06/17 11:55:50;;;;;;;7.63;7.03;;;34.50;49.40;;;;;;5093528;28;20431;-83
2021/06/17 11:58:18;;;;;;;7.17;6.77;;;34.50;48.80;;;;;;5092823;28;20442;-82
2021/06/17 12:00:44;;;;;;;6.60;6.20;;;34.50;47.10;;;;;;5093468;28;20398;-82
2021/06/17 12:03:20;;;;;;;6.90;6.57;;;34.50;46.40;;;;;;5091654;28;20409;-82
2021/06/17 12:05:46;;;;;;;6.93;6.53;;;34.50;48.40;;;;;;5093253;28;20613;-82
2021/06/17 12:08:12;;;;;;;7.00;6.60;;;34.50;48.30;;;;;;5092699;28;20399;-82
2021/06/17 12:10:41;;;;;;;7.43;7.03;;;34.50;49.60;;;;;;5093277;28;20407;-83
2021/06/17 12:13:10;;;;;;;8.40;7.70;;;34.60;48.30;;;;;;5092578;28;20443;-82
2021/06/17 12:15:39;;;;;;;8.70;8.20;;;34.50;47.40;;;;;;5093108;28;20410;-83
2021/06/17 12:18:11;;;;;;;7.03;6.57;;;34.50;48.40;;;;;;5092571;28;20425;-84
2021/06/17 12:20:48;;;;;;;6.87;6.57;;;34.50;46.20;;;;;;5092879;28;20821;-86
2021/06/17 12:23:22;;;;;;;7.60;7.00;;;34.50;48.80;;;;;;5091619;28;20450;-85
2021/06/17 12:26:00;;;;;;;7.63;7.13;;;34.50;48.60;;;;;;5093026;28;20434;-85
2021/06/17 12:28:27;;;;;;;8.60;8.10;;;34.50;48.40;;;;;;5092369;28;20417;-85
2021/06/17 12:30:55;;;;;;;8.30;7.50;;;34.60;50.90;;;;;;5093034;28;20568;-84
2021/06/17 12:33:31;;;;;;;7.40;6.80;;;34.50;46.30;;;;;;5092333;28;20481;-84
2021/06/17 12:36:04;;;;;;;7.10;6.70;;;34.40;47.80;;;;;;5092881;28;20402;-84
2021/06/17 12:38:35;;;;;;;7.13;6.73;;;34.40;47.90;;;;;;5092978;28;20793;-84
2021/06/17 12:41:11;;;;;;;7.33;6.63;;;34.40;48.60;;;;;;5092865;28;20882;-84
2021/06/17 12:43:45;;;;;;;7.60;7.10;;;34.40;48.40;;;;;;5092758;28;20402;-84
2021/06/17 12:46:12;;;;;;;6.83;6.43;;;34.20;49.00;;;;;;5091865;28;20446;-82
2021/06/17 12:54:04;;;;;;;7.20;6.50;;;34.30;50.00;;;;;;5092841;28;20906;-82
2021/06/17 12:56:30;;;;;;;6.97;6.37;;;34.30;49.00;;;;;;5091579;28;20768;-83
2021/06/17 12:58:56;;;;;;;7.30;6.70;;;34.20;48.90;;;;;;5092400;28;20513;-83